Time;durP1;ratioP1;P1;durP2;ratioP2;P2;SDS_P1;SDS_P2;PMS_P1;PMS_P2;Temp;Humidity;BMP_temperature;BMP_pressure;BME280_temperature;BME280_humidity;BME280_pressure;Samples;Min_cycle;Max_cycle;Signal;HPM_P1;HPM_P2
2022/06/15 00:00:12;;;;;;;8.10;2.80;;;9.90;99.90;;;;;;5028002;28;20581;-54
2022/06/15 00:02:39;;;;;;;3.33;2.10;;;10.00;99.90;;;;;;5028229;28;20543;-54
2022/06/15 00:05:08;;;;;;;4.00;2.13;;;9.80;99.90;;;;;;5027432;28;20543;-54
2022/06/15 00:07:34;;;;;;;5.47;2.37;;;9.80;99.90;;;;;;5029983;28;20549;-53
2022/06/15 00:10:01;;;;;;;8.87;2.60;;;9.70;99.90;;;;;;5029415;28;20490;-53
2022/06/15 00:12:28;;;;;;;2.20;2.00;;;9.80;99.90;;;;;;5023522;28;20463;-54
2022/06/15 00:14:55;;;;;;;5.37;2.57;;;9.80;99.90;;;;;;5027956;28;20546;-54
2022/06/15 00:17:22;;;;;;;5.80;2.33;;;9.80;99.90;;;;;;5026215;28;20494;-54
2022/06/15 00:19:49;;;;;;;4.03;2.67;;;9.70;99.90;;;;;;5026226;28;20486;-54
2022/06/15 00:22:17;;;;;;;5.23;2.10;;;9.60;99.90;;;;;;5028050;28;20570;-54
2022/06/15 00:24:43;;;;;;;4.97;2.20;;;9.70;99.90;;;;;;5025085;28;20541;-54
2022/06/15 00:27:10;;;;;;;2.03;1.93;;;9.70;99.90;;;;;;5029877;28;20553;-54
2022/06/15 00:29:37;;;;;;;3.90;2.20;;;9.60;99.90;;;;;;5029232;28;20569;-53
2022/06/15 00:32:05;;;;;;;3.43;2.23;;;9.60;99.90;;;;;;5026835;28;20471;-54
2022/06/15 00:34:32;;;;;;;4.07;2.10;;;9.60;99.90;;;;;;5028617;28;20545;-57
2022/06/15 00:36:58;;;;;;;5.60;2.30;;;9.60;99.90;;;;;;5028887;28;20561;-55
2022/06/15 00:39:26;;;;;;;2.70;1.87;;;9.60;99.90;;;;;;5025613;28;20569;-54
2022/06/15 00:41:53;;;;;;;3.00;2.10;;;9.60;99.90;;;;;;5027137;28;20520;-54
2022/06/15 00:44:33;;;;;;;2.20;2.03;;;9.50;99.90;;;;;;5031534;28;20533;-54
2022/06/15 00:47:01;;;;;;;10.20;2.30;;;9.50;99.90;;;;;;5028583;28;20577;-54
2022/06/15 00:49:32;;;;;;;7.10;2.57;;;9.50;99.90;;;;;;5030290;28;20510;-54
2022/06/15 00:52:03;;;;;;;3.47;2.67;;;9.50;99.90;;;;;;5020920;28;20546;-53
2022/06/15 00:54:32;;;;;;;3.33;2.33;;;9.50;99.90;;;;;;5030528;28;20545;-54
2022/06/15 00:56:58;;;;;;;4.70;1.80;;;9.50;99.90;;;;;;5029818;28;20538;-54
2022/06/15 00:59:30;;;;;;;2.90;2.07;;;9.50;99.90;;;;;;5031185;28;20550;-54
2022/06/15 01:01:57;;;;;;;3.77;2.50;;;9.50;99.90;;;;;;5030326;28;20474;-53
2022/06/15 01:04:26;;;;;;;2.40;1.90;;;9.50;99.90;;;;;;5029670;28;20553;-53
2022/06/15 01:07:04;;;;;;;2.17;2.03;;;9.50;99.90;;;;;;5027252;28;20558;-53
2022/06/15 01:09:38;;;;;;;9.13;2.40;;;9.50;99.90;;;;;;5029968;28;20489;-54
2022/06/15 01:12:15;;;;;;;2.47;1.87;;;9.30;99.90;;;;;;5012551;28;20714;-54
2022/06/15 01:15:03;;;;;;;3.77;2.30;;;9.40;99.90;;;;;;5031602;28;20450;-53
2022/06/15 01:17:40;;;;;;;7.20;2.13;;;9.30;99.90;;;;;;5026928;28;20486;-53
2022/06/15 01:20:21;;;;;;;3.47;2.23;;;9.20;99.90;;;;;;5033413;28;20486;-53
2022/06/15 01:23:26;;;;;;;3.53;1.80;;;9.30;99.90;;;;;;5027833;28;20545;-54
2022/06/15 01:26:07;;;;;;;6.13;2.73;;;9.20;99.90;;;;;;5032792;28;20466;-54
2022/06/15 01:28:43;;;;;;;3.73;2.50;;;9.10;99.90;;;;;;5032806;28;20557;-53
2022/06/15 01:31:27;;;;;;;4.53;2.40;;;9.20;99.90;;;;;;5031884;28;20580;-53
2022/06/15 01:34:04;;;;;;;3.67;2.60;;;9.20;99.90;;;;;;5027158;28;20501;-54
2022/06/15 01:36:45;;;;;;;4.37;2.57;;;9.10;99.90;;;;;;5031550;28;21020;-54
2022/06/15 01:39:18;;;;;;;4.03;2.20;;;9.10;99.90;;;;;;5030557;28;20482;-54
2022/06/15 01:41:50;;;;;;;4.77;3.00;;;8.90;99.20;;;;;;5027334;28;20486;-53
2022/06/15 01:44:25;;;;;;;6.20;2.77;;;9.00;99.90;;;;;;5032450;28;20549;-54
2022/06/15 01:46:54;;;;;;;3.53;2.50;;;9.00;99.90;;;;;;5032355;28;20540;-54
2022/06/15 01:49:26;;;;;;;2.73;2.43;;;8.90;99.90;;;;;;5031772;28;20497;-53
2022/06/15 01:51:53;;;;;;;2.53;2.13;;;8.90;99.90;;;;;;5031020;28;20582;-53
2022/06/15 01:54:26;;;;;;;2.80;2.60;;;8.80;99.90;;;;;;5028282;28;20465;-54
2022/06/15 01:56:56;;;;;;;3.20;2.90;;;8.80;98.90;;;;;;5028401;28;20968;-53
2022/06/15 01:59:27;;;;;;;7.47;3.00;;;8.80;99.90;;;;;;5031396;28;20478;-54
2022/06/15 02:02:02;;;;;;;6.23;2.47;;;8.90;94.90;;;;;;5030621;28;20502;-54
2022/06/15 02:04:35;;;;;;;2.53;2.33;;;8.80;99.90;;;;;;5031275;28;20520;-53
2022/06/15 02:07:14;;;;;;;3.40;2.20;;;8.70;99.90;;;;;;5031576;28;20459;-55
2022/06/15 02:09:48;;;;;;;2.03;1.93;;;8.60;99.90;;;;;;5029201;28;20486;-53
2022/06/15 02:12:21;;;;;;;3.17;2.30;;;8.80;85.90;;;;;;5027327;28;21007;-54
2022/06/15 02:14:52;;;;;;;6.17;2.33;;;8.70;95.30;;;;;;5031116;28;21150;-54
2022/06/15 02:17:25;;;;;;;2.67;2.47;;;8.70;99.20;;;;;;5021633;28;20474;-54
2022/06/15 02:19:57;;;;;;;6.40;2.67;;;8.60;99.90;;;;;;5030552;28;20478;-54
2022/06/15 02:22:29;;;;;;;3.73;2.87;;;8.60;99.90;;;;;;5031237;28;20541;-54
2022/06/15 02:24:58;;;;;;;3.57;2.73;;;8.60;99.90;;;;;;5032083;28;20827;-53
2022/06/15 02:27:29;;;;;;;12.60;2.73;;;8.60;97.30;;;;;;5031301;28;20919;-54
2022/06/15 02:30:02;;;;;;;4.67;2.33;;;8.60;97.20;;;;;;5031918;28;20482;-54
2022/06/15 02:32:30;;;;;;;5.93;2.53;;;8.60;99.90;;;;;;5028350;28;20541;-54
2022/06/15 02:38:18;;;;;;;4.03;2.33;;;8.50;99.90;;;;;;5022188;28;20555;-53
2022/06/15 02:40:45;;;;;;;7.53;2.80;;;8.50;99.00;;;;;;5026656;28;20514;-54
2022/06/15 02:43:13;;;;;;;9.07;3.10;;;8.50;97.20;;;;;;5022279;28;20538;-54
2022/06/15 02:45:41;;;;;;;2.87;2.67;;;8.60;93.10;;;;;;5031576;28;20826;-54
2022/06/15 02:48:10;;;;;;;4.27;2.40;;;8.60;96.70;;;;;;5030372;28;20485;-53
2022/06/15 02:50:41;;;;;;;7.83;3.10;;;8.60;99.90;;;;;;5032590;28;20921;-53
2022/06/15 02:53:13;;;;;;;6.27;2.80;;;8.50;99.90;;;;;;5027122;28;20493;-53
2022/06/15 02:55:40;;;;;;;2.60;2.30;;;8.50;90.80;;;;;;5030947;28;20482;-54
2022/06/15 02:58:10;;;;;;;4.97;2.70;;;8.50;99.90;;;;;;5032428;28;20854;-54
2022/06/15 03:00:38;;;;;;;3.40;2.00;;;8.50;99.90;;;;;;5029000;28;21011;-53
2022/06/15 03:03:05;;;;;;;2.83;2.43;;;8.40;99.90;;;;;;5028628;28;20475;-55
2022/06/15 03:05:33;;;;;;;4.80;2.30;;;8.40;99.90;;;;;;5031480;28;20597;-53
2022/06/15 03:07:59;;;;;;;6.30;2.90;;;8.50;99.90;;;;;;5031440;28;20459;-54
2022/06/15 03:10:26;;;;;;;6.27;2.90;;;8.50;99.90;;;;;;5029997;28;20582;-53
2022/06/15 03:12:52;;;;;;;5.83;3.20;;;8.50;99.90;;;;;;5027252;28;20499;-54
2022/06/15 03:15:19;;;;;;;6.87;2.73;;;8.40;99.90;;;;;;5029915;28;20909;-54
2022/06/15 03:17:45;;;;;;;4.90;2.57;;;8.40;99.90;;;;;;5027432;28;20566;-54
2022/06/15 03:20:12;;;;;;;6.50;2.93;;;8.50;97.10;;;;;;5030015;28;20514;-54
2022/06/15 03:22:42;;;;;;;3.37;2.50;;;8.50;97.70;;;;;;5029473;28;20896;-53
2022/06/15 03:25:09;;;;;;;3.83;2.37;;;8.50;99.90;;;;;;5027657;28;20845;-54
2022/06/15 03:27:35;;;;;;;5.67;2.80;;;8.40;99.90;;;;;;5029669;28;21015;-54
2022/06/15 03:30:04;;;;;;;4.23;2.40;;;8.40;99.90;;;;;;5029278;28;20536;-54
2022/06/15 03:32:30;;;;;;;6.77;3.20;;;8.50;99.90;;;;;;5026024;28;20462;-54
2022/06/15 03:34:57;;;;;;;7.80;2.50;;;8.40;99.90;;;;;;5030430;28;20521;-54
2022/06/15 03:37:23;;;;;;;8.10;2.60;;;8.40;94.10;;;;;;5029196;28;20490;-54
2022/06/15 03:39:54;;;;;;;7.37;2.83;;;8.40;97.50;;;;;;5028894;28;21058;-54
2022/06/15 03:42:24;;;;;;;3.70;2.20;;;8.50;98.70;;;;;;5027219;28;20467;-54
2022/06/15 03:44:51;;;;;;;4.23;2.67;;;8.50;99.90;;;;;;5022897;28;20502;-53
2022/06/15 03:47:18;;;;;;;3.57;2.83;;;8.50;99.90;;;;;;5029424;28;20894;-54
2022/06/15 03:49:44;;;;;;;6.33;3.50;;;8.70;99.90;;;;;;5028726;28;20470;-55
2022/06/15 03:52:11;;;;;;;4.20;3.37;;;8.50;94.80;;;;;;5028189;28;20872;-55
2022/06/15 03:54:38;;;;;;;6.20;3.00;;;8.60;95.50;;;;;;5028385;28;20486;-54
2022/06/15 03:57:06;;;;;;;9.43;3.43;;;8.60;99.90;;;;;;5031551;28;20462;-53
2022/06/15 03:59:33;;;;;;;4.10;3.10;;;8.60;99.90;;;;;;5025608;28;20578;-54
2022/06/15 04:02:00;;;;;;;5.00;2.80;;;8.50;99.70;;;;;;5028571;28;20450;-54
2022/06/15 04:04:27;;;;;;;8.33;3.50;;;8.50;96.70;;;;;;5030795;28;20494;-54
2022/06/15 04:06:53;;;;;;;7.30;3.27;;;8.60;91.10;;;;;;5030871;28;20494;-53
2022/06/15 04:09:21;;;;;;;4.03;3.10;;;8.60;96.80;;;;;;5028703;28;20514;-53
2022/06/15 04:12:01;;;;;;;4.10;3.10;;;8.70;97.50;;;;;;5020810;23;20617;-49
2022/06/15 04:14:30;;;;;;;6.00;2.90;;;8.70;99.90;;;;;;5011383;28;20495;-49
2022/06/15 04:16:57;;;;;;;4.33;3.20;;;8.70;99.90;;;;;;5000363;28;20491;-48
2022/06/15 04:19:26;;;;;;;3.37;3.03;;;8.80;96.90;;;;;;5008140;28;20534;-49
2022/06/15 04:21:53;;;;;;;13.00;3.57;;;8.70;99.90;;;;;;5011325;28;20558;-48
2022/06/15 04:24:21;;;;;;;4.57;3.40;;;8.80;99.90;;;;;;5007215;28;20506;-48
2022/06/15 04:26:50;;;;;;;7.20;3.30;;;8.80;98.40;;;;;;5011395;28;20468;-49
2022/06/15 04:29:18;;;;;;;3.10;2.90;;;8.90;96.10;;;;;;5009683;28;20496;-48
2022/06/15 04:31:45;;;;;;;5.20;3.03;;;9.00;95.10;;;;;;5009664;28;20532;-47
2022/06/15 04:34:13;;;;;;;6.53;3.20;;;9.10;99.90;;;;;;5010307;28;20459;-49
2022/06/15 04:36:42;;;;;;;10.27;3.83;;;9.30;99.90;;;;;;5012304;28;20475;-48
2022/06/15 04:39:11;;;;;;;5.37;3.60;;;9.30;99.90;;;;;;5010316;28;20514;-48
2022/06/15 04:41:38;;;;;;;5.97;3.00;;;9.40;99.90;;;;;;5009437;28;20479;-49
2022/06/15 04:44:05;;;;;;;4.23;3.47;;;9.50;99.90;;;;;;5011584;28;20494;-49
2022/06/15 04:46:32;;;;;;;8.80;3.40;;;9.60;99.90;;;;;;5005331;28;20494;-49
2022/06/15 04:49:00;;;;;;;3.80;3.43;;;9.70;99.90;;;;;;5012112;28;20531;-49
2022/06/15 04:51:29;;;;;;;18.17;3.50;;;9.80;99.90;;;;;;5006873;28;20486;-49
2022/06/15 04:53:58;;;;;;;6.20;3.23;;;9.90;99.90;;;;;;5010002;28;20448;-50
2022/06/15 04:56:26;;;;;;;8.00;4.83;;;10.00;99.90;;;;;;5008262;28;20466;-49
2022/06/15 04:58:53;;;;;;;6.60;3.17;;;10.10;99.90;;;;;;5005295;28;20954;-49
2022/06/15 05:01:19;;;;;;;5.27;3.23;;;10.20;99.90;;;;;;5007318;28;20585;-48
2022/06/15 05:03:46;;;;;;;4.77;3.10;;;10.20;99.90;;;;;;5011983;28;20881;-49
2022/06/15 05:06:31;;;;;;;5.53;3.37;;;10.20;99.90;;;;;;5008458;28;20499;-49
2022/06/15 05:08:58;;;;;;;4.27;2.90;;;10.30;99.90;;;;;;5002438;28;20487;-49
2022/06/15 05:11:26;;;;;;;5.93;3.67;;;10.30;99.90;;;;;;5005852;28;21020;-49
2022/06/15 05:13:53;;;;;;;7.30;2.97;;;10.40;99.90;;;;;;5005975;28;20541;-48
2022/06/15 05:16:20;;;;;;;8.93;3.70;;;10.40;99.90;;;;;;5007081;28;20467;-49
2022/06/15 05:18:46;;;;;;;4.30;3.60;;;10.50;99.90;;;;;;5006891;28;21076;-48
2022/06/15 05:21:14;;;;;;;3.97;3.00;;;10.60;99.90;;;;;;5007305;28;20502;-48
2022/06/15 05:23:41;;;;;;;7.50;3.87;;;10.70;99.90;;;;;;5002280;28;20491;-48
2022/06/15 05:26:08;;;;;;;6.30;3.63;;;10.80;99.90;;;;;;5007742;28;20502;-48
2022/06/15 05:28:35;;;;;;;6.77;3.83;;;10.90;99.90;;;;;;5005204;28;20491;-48
2022/06/15 05:31:05;;;;;;;14.53;2.83;;;11.00;99.90;;;;;;5008433;28;20545;-48
2022/06/15 05:33:33;;;;;;;8.73;3.90;;;11.10;99.90;;;;;;5004277;28;20954;-48
2022/06/15 05:36:02;;;;;;;7.23;3.50;;;11.20;99.90;;;;;;5009256;28;20514;-48
2022/06/15 05:38:30;;;;;;;4.60;2.93;;;11.30;99.90;;;;;;5008376;28;20459;-48
2022/06/15 05:40:57;;;;;;;22.03;4.60;;;11.40;99.90;;;;;;5009207;28;21163;-49
2022/06/15 05:43:23;;;;;;;13.90;3.77;;;11.50;99.90;;;;;;5009437;28;20537;-48
2022/06/15 05:45:50;;;;;;;14.03;4.17;;;11.60;99.90;;;;;;5005326;28;20875;-48
2022/06/15 05:48:16;;;;;;;7.30;3.80;;;11.70;99.90;;;;;;5006729;28;20464;-49
2022/06/15 05:50:43;;;;;;;25.60;4.77;;;11.80;99.90;;;;;;5006005;28;20522;-49
2022/06/15 05:53:10;;;;;;;24.37;4.57;;;12.00;99.90;;;;;;5004489;28;20617;-49
2022/06/15 05:55:38;;;;;;;17.20;5.80;;;12.20;99.90;;;;;;5003456;28;20969;-48
2022/06/15 05:58:05;;;;;;;15.67;5.27;;;12.30;99.90;;;;;;5007013;28;20521;-48
2022/06/15 06:00:32;;;;;;;13.43;5.20;;;12.50;99.90;;;;;;5003151;28;20492;-48
2022/06/15 06:02:59;;;;;;;23.40;6.17;;;12.70;99.90;;;;;;5005890;28;20539;-47
2022/06/15 06:05:25;;;;;;;24.93;4.73;;;12.90;99.90;;;;;;5009921;28;20533;-48
2022/06/15 06:07:54;;;;;;;7.57;5.27;;;13.00;99.90;;;;;;5008275;28;20468;-48
2022/06/15 06:10:20;;;;;;;17.50;4.63;;;13.20;99.90;;;;;;5005173;28;20491;-48
2022/06/15 06:12:48;;;;;;;7.13;4.03;;;13.30;99.90;;;;;;5015727;28;20882;-49
2022/06/15 06:15:15;;;;;;;14.93;4.73;;;13.50;99.90;;;;;;5006725;28;20459;-48
2022/06/15 06:17:41;;;;;;;5.50;3.70;;;13.60;99.90;;;;;;5005164;28;20981;-48
2022/06/15 06:20:09;;;;;;;4.07;3.03;;;13.70;99.90;;;;;;5009521;28;20479;-48
2022/06/15 06:22:36;;;;;;;4.57;3.33;;;13.90;99.90;;;;;;5007629;28;21383;-49
2022/06/15 06:25:03;;;;;;;11.10;3.33;;;14.00;99.90;;;;;;5003999;28;20555;-47
2022/06/15 06:27:30;;;;;;;8.10;3.40;;;14.10;99.90;;;;;;4997142;28;20552;-48
2022/06/15 06:29:58;;;;;;;6.03;3.43;;;14.20;99.90;;;;;;5016402;28;21189;-49
2022/06/15 06:32:24;;;;;;;13.00;3.70;;;14.40;99.90;;;;;;5006556;28;20487;-48
2022/06/15 06:34:51;;;;;;;8.57;3.80;;;14.50;77.50;;;;;;5009971;28;20540;-48
2022/06/15 06:37:18;;;;;;;6.03;2.87;;;14.70;27.40;;;;;;5013781;28;20859;-48
2022/06/15 06:39:44;;;;;;;9.20;3.53;;;14.80;36.50;;;;;;5010975;28;20514;-49
2022/06/15 06:42:12;;;;;;;4.40;3.13;;;14.90;44.50;;;;;;5006743;28;20483;-50
2022/06/15 06:44:39;;;;;;;6.63;3.03;;;15.10;53.00;;;;;;5009268;28;20459;-49
2022/06/15 06:47:08;;;;;;;7.97;3.60;;;15.20;57.70;;;;;;5010508;28;21011;-49
2022/06/15 06:49:36;;;;;;;19.67;3.50;;;15.30;66.40;;;;;;5008889;28;20998;-49
2022/06/15 06:52:03;;;;;;;5.03;2.50;;;15.40;72.80;;;;;;5009896;28;20480;-49
2022/06/15 06:54:31;;;;;;;4.53;2.37;;;15.50;80.20;;;;;;5008795;28;20491;-48
2022/06/15 06:56:58;;;;;;;7.70;3.20;;;15.60;95.90;;;;;;5010676;28;20463;-48
2022/06/15 06:59:25;;;;;;;9.03;2.20;;;15.70;96.50;;;;;;5001576;28;20507;-47
2022/06/15 07:01:51;;;;;;;9.77;2.87;;;15.70;94.80;;;;;;5009183;28;20610;-48
2022/06/15 07:04:19;;;;;;;6.17;3.10;;;15.80;95.20;;;;;;5007948;28;21525;-49
2022/06/15 07:06:47;;;;;;;4.30;2.37;;;16.00;94.60;;;;;;5007739;28;20464;-48
2022/06/15 07:09:14;;;;;;;7.47;2.13;;;16.00;94.60;;;;;;5009866;28;20817;-48
2022/06/15 07:11:42;;;;;;;6.63;2.67;;;16.10;99.40;;;;;;5001362;28;20930;-49
2022/06/15 07:14:09;;;;;;;6.13;2.53;;;16.30;99.90;;;;;;5002257;28;20489;-48
2022/06/15 07:16:37;;;;;;;3.80;2.10;;;16.50;99.90;;;;;;5007132;28;20969;-49
2022/06/15 07:19:03;;;;;;;10.20;2.20;;;16.60;99.90;;;;;;5011725;28;20470;-48
2022/06/15 07:21:31;;;;;;;3.93;2.03;;;16.70;99.90;;;;;;5007710;28;20514;-49
2022/06/15 07:23:59;;;;;;;9.07;2.70;;;16.80;99.90;;;;;;5004130;28;20496;-49
2022/06/15 07:26:28;;;;;;;5.20;2.00;;;16.90;99.90;;;;;;5002525;28;21045;-48
2022/06/15 07:28:55;;;;;;;3.80;1.90;;;17.00;99.90;;;;;;5002518;28;20543;-49
2022/06/15 07:31:24;;;;;;;4.33;1.50;;;17.10;99.90;;;;;;5008474;28;20508;-48
2022/06/15 07:33:51;;;;;;;14.80;1.73;;;17.10;99.90;;;;;;5010281;28;20490;-48
2022/06/15 07:36:18;;;;;;;6.70;2.40;;;17.20;99.90;;;;;;5007407;28;20550;-48
2022/06/15 07:38:46;;;;;;;8.63;1.80;;;17.20;99.90;;;;;;5005750;28;20506;-48
2022/06/15 07:41:13;;;;;;;6.30;2.37;;;17.30;99.90;;;;;;5007866;28;20523;-48
2022/06/15 07:43:40;;;;;;;10.57;1.67;;;17.40;99.90;;;;;;5010316;28;21047;-49
2022/06/15 07:46:07;;;;;;;3.60;1.70;;;17.60;99.90;;;;;;5005795;28;20456;-47
2022/06/15 07:51:32;;;;;;;6.40;2.13;;;17.80;99.90;;;;;;5007391;28;20574;-48
2022/06/15 07:54:02;;;;;;;7.60;1.80;;;17.90;99.90;;;;;;5004788;28;20518;-49
2022/06/15 07:56:29;;;;;;;3.07;1.40;;;17.90;99.90;;;;;;5008617;28;20463;-48
2022/06/15 07:58:56;;;;;;;8.10;3.00;;;18.00;99.90;;;;;;5005861;28;20529;-48
2022/06/15 08:01:23;;;;;;;3.40;1.60;;;18.10;99.90;;;;;;5004345;28;20574;-49
2022/06/15 08:03:50;;;;;;;6.60;2.47;;;18.20;99.90;;;;;;5007254;28;20487;-49
2022/06/15 08:06:17;;;;;;;9.77;2.17;;;18.30;99.90;;;;;;5005300;28;20538;-49
2022/06/15 08:08:45;;;;;;;3.10;2.00;;;18.30;99.90;;;;;;5003975;28;20463;-49
2022/06/15 08:11:13;;;;;;;4.37;1.90;;;18.30;99.90;;;;;;5006645;28;20495;-49
2022/06/15 08:13:40;;;;;;;4.70;2.50;;;18.40;99.90;;;;;;5005730;28;20553;-48
2022/06/15 08:16:07;;;;;;;8.73;2.60;;;18.40;99.90;;;;;;5004915;28;20996;-49
2022/06/15 08:18:39;;;;;;;8.50;2.20;;;18.40;99.90;;;;;;5001344;28;20470;-48
2022/06/15 08:21:10;;;;;;;7.43;2.00;;;18.40;99.90;;;;;;5000901;28;20578;-49
2022/06/15 08:23:40;;;;;;;7.40;1.90;;;18.40;99.90;;;;;;5002074;28;20467;-48
2022/06/15 08:26:12;;;;;;;3.53;1.80;;;18.40;99.90;;;;;;4999127;28;20854;-48
2022/06/15 08:28:44;;;;;;;5.70;2.60;;;18.30;99.90;;;;;;5013320;28;20491;-48
2022/06/15 08:31:11;;;;;;;11.63;2.30;;;18.20;99.90;;;;;;5003900;28;20507;-49
2022/06/15 08:33:38;;;;;;;5.03;2.07;;;18.30;99.90;;;;;;5015309;28;20486;-48
2022/06/15 08:36:06;;;;;;;7.43;2.20;;;18.40;99.90;;;;;;5003461;28;21229;-48
2022/06/15 08:38:33;;;;;;;9.13;2.60;;;18.50;99.90;;;;;;5003159;28;20466;-48
2022/06/15 08:41:04;;;;;;;6.10;1.80;;;18.70;99.90;;;;;;5004345;28;20569;-49
2022/06/15 08:43:43;;;;;;;6.20;1.80;;;18.90;99.90;;;;;;5007742;28;20491;-48
2022/06/15 08:46:16;;;;;;;7.67;2.40;;;19.00;99.90;;;;;;5007443;28;20498;-48
2022/06/15 08:48:52;;;;;;;5.37;2.10;;;19.20;99.90;;;;;;5004182;28;20495;-47
2022/06/15 08:51:25;;;;;;;6.47;2.13;;;19.30;99.90;;;;;;4998553;28;20511;-49
2022/06/15 08:53:58;;;;;;;9.57;2.57;;;19.40;99.90;;;;;;5005687;28;20578;-48
2022/06/15 08:56:30;;;;;;;5.37;1.83;;;19.60;99.90;;;;;;5006435;28;20502;-50
2022/06/15 08:59:06;;;;;;;5.23;2.00;;;19.80;99.90;;;;;;5002899;28;20645;-49
2022/06/15 09:01:41;;;;;;;6.90;2.50;;;19.90;99.90;;;;;;5002854;28;21040;-50
2022/06/15 09:04:16;;;;;;;7.13;1.67;;;20.00;99.90;;;;;;5002778;28;20463;-50
2022/06/15 09:06:53;;;;;;;5.57;1.83;;;20.10;99.90;;;;;;4997757;28;20841;-48
2022/06/15 09:09:42;;;;;;;6.43;2.00;;;20.00;99.90;;;;;;5006647;28;20537;-49
2022/06/15 09:15:18;;;;;;;9.77;2.30;;;20.30;99.90;;;;;;5004992;28;20529;-49
2022/06/15 09:17:46;;;;;;;4.53;2.17;;;20.40;99.90;;;;;;5005827;28;20493;-49
2022/06/15 09:20:17;;;;;;;7.20;2.13;;;20.30;99.90;;;;;;5007095;28;20538;-50
2022/06/15 09:22:49;;;;;;;9.20;2.20;;;20.40;99.90;;;;;;4997147;28;20894;-49
2022/06/15 09:25:20;;;;;;;6.33;2.73;;;20.30;99.90;;;;;;5004491;28;20500;-49
2022/06/15 09:27:49;;;;;;;8.27;2.07;;;20.30;99.90;;;;;;5001937;28;20499;-49
2022/06/15 09:30:21;;;;;;;7.30;2.07;;;20.10;99.90;;;;;;5001054;28;20463;-49
2022/06/15 09:32:53;;;;;;;6.83;2.20;;;20.20;99.90;;;;;;5000381;28;20488;-49
2022/06/15 09:35:25;;;;;;;5.63;2.10;;;20.30;99.90;;;;;;5005773;28;20518;-49
2022/06/15 09:37:55;;;;;;;8.33;2.57;;;20.40;99.90;;;;;;5004334;28;20929;-50
2022/06/15 09:40:27;;;;;;;8.60;2.20;;;20.50;99.90;;;;;;5010050;28;20523;-49
2022/06/15 09:43:02;;;;;;;2.97;1.93;;;20.40;99.90;;;;;;5005453;28;20561;-49
2022/06/15 09:45:34;;;;;;;3.73;2.30;;;20.30;99.90;;;;;;5010045;28;20576;-49
2022/06/15 09:48:07;;;;;;;7.87;2.60;;;20.20;99.90;;;;;;5005776;28;22392;-49
2022/06/15 09:50:40;;;;;;;7.10;2.03;;;20.10;99.90;;;;;;5007783;28;20479;-48
2022/06/15 09:53:21;;;;;;;4.03;1.90;;;19.90;99.90;;;;;;5003767;28;20462;-49
2022/06/15 09:55:53;;;;;;;9.40;2.27;;;19.90;99.90;;;;;;5012203;28;20483;-49
2022/06/15 09:58:25;;;;;;;15.43;2.53;;;19.80;99.90;;;;;;5009706;28;20468;-49
2022/06/15 10:00:53;;;;;;;4.80;2.20;;;19.90;99.90;;;;;;5008266;28;20542;-49
2022/06/15 10:03:24;;;;;;;10.00;3.23;;;20.00;99.90;;;;;;5009284;28;20479;-49
2022/06/15 10:05:54;;;;;;;11.53;2.60;;;20.30;99.90;;;;;;5005640;28;20992;-50
2022/06/15 10:08:20;;;;;;;16.67;3.00;;;20.70;99.90;;;;;;5007199;28;20456;-49
2022/06/15 10:10:51;;;;;;;7.30;2.83;;;20.80;99.90;;;;;;5026700;23;21388;-52
2022/06/15 10:13:36;;;;;;;12.50;2.87;;;20.90;99.90;;;;;;5022878;28;20466;-51
2022/06/15 10:16:17;;;;;;;9.23;2.33;;;21.20;99.90;;;;;;5027868;28;20482;-50
2022/06/15 10:18:47;;;;;;;7.00;2.00;;;21.30;99.90;;;;;;5027991;28;20902;-52
2022/06/15 10:21:21;;;;;;;5.43;2.37;;;21.30;99.90;;;;;;5014471;28;21083;-52
2022/06/15 10:23:55;;;;;;;5.53;2.07;;;21.50;99.90;;;;;;5004691;28;20459;-51
2022/06/15 10:26:29;;;;;;;4.17;2.00;;;21.60;99.90;;;;;;5007014;28;20964;-52
2022/06/15 10:28:58;;;;;;;8.43;2.40;;;21.70;99.90;;;;;;5007595;28;20533;-52
2022/06/15 10:31:30;;;;;;;11.83;2.37;;;21.80;99.90;;;;;;5006056;28;20475;-51
2022/06/15 10:33:57;;;;;;;8.03;2.37;;;21.90;99.90;;;;;;5009610;28;20987;-52
2022/06/15 10:36:31;;;;;;;4.23;2.70;;;21.90;99.90;;;;;;5005825;28;20554;-50
2022/06/15 10:39:04;;;;;;;8.00;2.37;;;22.00;99.90;;;;;;5004235;28;20466;-52
2022/06/15 10:41:46;;;;;;;8.23;2.43;;;22.10;99.90;;;;;;5007614;28;20573;-51
2022/06/15 10:44:15;;;;;;;8.30;2.37;;;22.20;99.90;;;;;;5007616;28;20464;-52
2022/06/15 10:46:59;;;;;;;5.93;1.80;;;22.30;99.90;;;;;;5006495;28;20495;-51
2022/06/15 10:49:29;;;;;;;2.40;1.67;;;22.20;99.90;;;;;;5005645;28;20880;-51
2022/06/15 10:51:56;;;;;;;6.40;2.00;;;22.30;99.90;;;;;;5004540;28;21009;-51
2022/06/15 10:54:31;;;;;;;2.30;1.70;;;22.30;99.90;;;;;;5005550;28;20949;-52
2022/06/15 11:03:10;;;;;;;4.40;2.23;;;22.60;99.90;;;;;;5007743;28;20450;-51
2022/06/15 11:05:38;;;;;;;20.60;3.37;;;22.80;99.90;;;;;;5005138;28;20490;-51
2022/06/15 11:08:11;;;;;;;3.53;2.13;;;22.60;99.90;;;;;;5005572;28;20502;-53
2022/06/15 11:10:40;;;;;;;6.97;1.80;;;22.50;99.90;;;;;;5007734;28;20557;-52
2022/06/15 11:13:28;;;;;;;9.77;2.00;;;22.40;99.90;;;;;;5001838;28;20556;-51
2022/06/15 11:18:44;;;;;;;8.33;2.43;;;22.40;99.90;;;;;;5010318;28;20443;-51
2022/06/15 11:21:14;;;;;;;5.00;2.50;;;22.60;99.90;;;;;;5008014;28;20483;-51
2022/06/15 11:23:49;;;;;;;3.80;2.50;;;22.80;99.90;;;;;;5002572;28;20550;-52
2022/06/15 11:29:31;;;;;;;12.67;2.73;;;23.00;99.90;;;;;;5004019;28;20522;-52
2022/06/15 11:32:02;;;;;;;8.10;2.20;;;23.10;99.90;;;;;;5002991;28;20566;-52
2022/06/15 11:34:37;;;;;;;4.57;2.43;;;23.10;99.90;;;;;;5007414;28;20474;-53
2022/06/15 11:37:10;;;;;;;11.23;2.10;;;23.10;99.90;;;;;;5007140;28;20463;-53
2022/06/15 11:39:41;;;;;;;3.70;2.40;;;23.10;99.90;;;;;;5006701;28;20535;-53
2022/06/15 11:42:11;;;;;;;6.90;2.20;;;23.00;99.90;;;;;;5002269;28;21447;-54
2022/06/15 11:44:41;;;;;;;10.60;2.00;;;23.20;99.90;;;;;;5003797;28;20506;-53
2022/06/15 11:47:17;;;;;;;11.87;3.17;;;23.30;99.90;;;;;;5003157;28;20456;-54
2022/06/15 11:49:55;;;;;;;5.00;2.10;;;23.40;99.90;;;;;;5004658;28;20507;-54
2022/06/15 11:52:34;;;;;;;7.20;2.50;;;23.50;99.90;;;;;;5000627;28;20531;-53
2022/06/15 11:55:16;;;;;;;3.40;2.00;;;23.60;99.90;;;;;;5005422;28;20495;-54
2022/06/15 11:57:51;;;;;;;8.80;2.07;;;23.80;99.90;;;;;;5008882;28;20459;-53
2022/06/15 12:00:23;;;;;;;5.97;2.13;;;23.80;99.90;;;;;;5005727;28;20462;-52
2022/06/15 12:03:04;;;;;;;8.73;2.60;;;23.80;99.90;;;;;;5003035;28;20467;-53
2022/06/15 12:05:39;;;;;;;7.57;2.17;;;23.80;99.90;;;;;;5007519;28;20463;-53
2022/06/15 12:08:15;;;;;;;3.87;2.40;;;23.90;99.90;;;;;;5004077;28;20477;-54
2022/06/15 12:10:46;;;;;;;3.43;1.63;;;23.80;99.90;;;;;;5004349;28;20475;-52
2022/06/15 12:13:23;;;;;;;6.47;2.00;;;23.80;99.90;;;;;;5005439;28;20455;-54
2022/06/15 12:15:56;;;;;;;10.60;2.67;;;23.90;99.90;;;;;;5003902;28;20499;-53
2022/06/15 12:18:33;;;;;;;7.93;2.20;;;23.90;99.90;;;;;;5007171;28;20530;-54
2022/06/15 12:21:05;;;;;;;7.63;2.47;;;24.00;99.90;;;;;;5003141;28;21112;-53
2022/06/15 12:23:41;;;;;;;6.77;2.50;;;23.90;99.90;;;;;;5001975;28;20491;-53
2022/06/15 12:26:23;;;;;;;10.40;2.37;;;23.90;99.90;;;;;;5003238;28;20574;-53
2022/06/15 12:29:01;;;;;;;6.40;2.30;;;23.80;99.90;;;;;;5003839;28;20954;-53
2022/06/15 12:31:37;;;;;;;7.40;2.40;;;23.80;99.90;;;;;;5005297;28;20581;-53
2022/06/15 12:34:11;;;;;;;11.70;2.03;;;23.80;99.90;;;;;;5006362;28;20517;-53
2022/06/15 12:36:44;;;;;;;11.60;1.93;;;24.00;99.90;;;;;;5004238;28;20521;-53
2022/06/15 12:39:18;;;;;;;5.17;1.90;;;24.10;99.90;;;;;;5005739;28;20456;-53
2022/06/15 12:44:37;;;;;;;6.33;2.50;;;24.20;99.90;;;;;;5001906;28;20490;-57
2022/06/15 12:47:06;;;;;;;3.83;2.00;;;24.30;99.90;;;;;;5001135;28;20486;-58
2022/06/15 12:49:37;;;;;;;8.53;2.47;;;24.20;99.90;;;;;;5001645;28;21051;-57
2022/06/15 12:52:15;;;;;;;5.63;1.80;;;24.30;99.90;;;;;;4996350;28;20476;-52
2022/06/15 12:54:58;;;;;;;6.40;2.50;;;24.20;99.90;;;;;;5004707;28;20959;-51
2022/06/15 12:57:33;;;;;;;10.63;2.60;;;24.20;99.90;;;;;;5004693;28;20471;-52
2022/06/15 13:00:09;;;;;;;8.40;2.23;;;24.30;99.90;;;;;;5005375;28;20495;-52
2022/06/15 13:02:42;;;;;;;13.97;2.40;;;24.50;99.90;;;;;;5004875;28;20522;-51
2022/06/15 13:05:19;;;;;;;5.20;2.67;;;24.70;99.90;;;;;;5006857;28;21090;-51
2022/06/15 13:08:16;;;;;;;8.33;2.47;;;24.80;99.90;;;;;;5005100;28;20464;-52
2022/06/15 13:11:00;;;;;;;8.33;2.80;;;25.00;99.90;;;;;;5001478;28;20489;-52
2022/06/15 13:13:31;;;;;;;6.00;2.17;;;25.00;99.90;;;;;;5010299;28;20871;-50
2022/06/15 13:16:02;;;;;;;5.33;2.30;;;25.10;99.90;;;;;;5014525;28;21023;-51
2022/06/15 13:18:43;;;;;;;3.90;2.03;;;25.10;99.90;;;;;;5008347;28;20557;-51
2022/06/15 13:21:12;;;;;;;4.30;1.90;;;25.10;99.90;;;;;;5011542;28;20489;-51
2022/06/15 13:23:42;;;;;;;3.33;2.10;;;25.10;99.90;;;;;;5010393;28;21873;-52
2022/06/15 13:26:14;;;;;;;5.67;2.10;;;25.10;99.90;;;;;;5011394;28;20443;-52
2022/06/15 13:28:44;;;;;;;4.20;2.23;;;25.10;99.90;;;;;;5013459;28;20455;-52
2022/06/15 13:31:13;;;;;;;4.43;2.20;;;25.20;99.90;;;;;;5009306;28;20486;-50